createdAt,value
2023-04-17T00:01:06.804Z,5.90
2023-04-17T00:03:33.645Z,7.83
2023-04-17T00:06:01.728Z,7.73
2023-04-17T00:08:28.393Z,7.20
2023-04-17T00:11:04.564Z,7.33
2023-04-17T00:13:33.552Z,8.27
2023-04-17T00:16:00.252Z,8.47
2023-04-17T00:18:27.003Z,8.03
2023-04-17T00:20:53.738Z,11.23
2023-04-17T00:23:21.703Z,11.47
2023-04-17T00:25:48.498Z,12.03
2023-04-17T00:28:15.189Z,7.40
2023-04-17T00:30:41.818Z,9.33
2023-04-17T00:33:08.621Z,10.33
2023-04-17T00:35:35.283Z,7.77
2023-04-17T00:38:01.987Z,6.70
2023-04-17T00:40:30.032Z,8.00
2023-04-17T00:43:00.351Z,8.43
2023-04-17T00:45:27.137Z,10.50
2023-04-17T00:47:54.555Z,11.10
2023-04-17T00:50:22.303Z,6.67
2023-04-17T00:52:49.673Z,7.60
2023-04-17T00:55:16.409Z,11.07
2023-04-17T00:57:44.918Z,8.23
2023-04-17T01:00:12.775Z,10.57
2023-04-17T01:02:40.454Z,10.00
2023-04-17T01:05:07.782Z,12.43
2023-04-17T01:07:34.740Z,9.10
2023-04-17T01:10:01.565Z,13.87
2023-04-17T01:12:28.199Z,14.20
2023-04-17T01:14:57.069Z,11.57
2023-04-17T01:17:24.504Z,11.80
2023-04-17T01:19:51.561Z,9.63
2023-04-17T01:22:18.877Z,9.40
2023-04-17T01:24:47.246Z,9.00
2023-04-17T01:27:14.454Z,9.97
2023-04-17T01:29:41.888Z,9.37
2023-04-17T01:32:08.709Z,9.17
2023-04-17T01:34:37.278Z,11.67
2023-04-17T01:37:04.519Z,9.43
2023-04-17T01:39:31.297Z,12.03
2023-04-17T01:41:59.363Z,9.97
2023-04-17T01:44:26.034Z,12.30
2023-04-17T01:46:52.786Z,10.70
2023-04-17T01:49:20.505Z,11.13
2023-04-17T01:51:47.151Z,10.87
2023-04-17T01:54:13.911Z,13.27
2023-04-17T01:56:40.622Z,11.80
2023-04-17T01:59:08.833Z,10.33
2023-04-17T02:01:35.591Z,13.27
2023-04-17T02:04:02.418Z,10.40
2023-04-17T02:06:29.426Z,11.47
2023-04-17T02:08:56.114Z,15.43
2023-04-17T02:11:22.803Z,9.60
2023-04-17T02:13:49.548Z,12.43
2023-04-17T02:16:17.629Z,12.73
2023-04-17T02:18:44.390Z,12.07
2023-04-17T02:21:11.226Z,14.23
2023-04-17T02:23:37.941Z,14.90
2023-04-17T02:26:05.402Z,11.50
2023-04-17T02:28:32.123Z,13.00
2023-04-17T02:30:59.197Z,16.37
2023-04-17T02:33:27.329Z,11.80
2023-04-17T02:35:54.065Z,16.50
2023-04-17T02:38:20.707Z,15.20
2023-04-17T02:40:47.376Z,11.30
2023-04-17T02:43:14.055Z,13.33
2023-04-17T02:45:40.776Z,13.83
2023-04-17T02:48:07.464Z,17.73
2023-04-17T02:50:35.579Z,17.50
2023-04-17T02:53:02.241Z,16.67
2023-04-17T02:55:28.920Z,14.50
2023-04-17T02:57:55.637Z,16.63
2023-04-17T03:00:22.656Z,15.13
2023-04-17T03:02:49.750Z,13.90
2023-04-17T03:05:17.632Z,15.20
2023-04-17T03:07:45.779Z,10.13
2023-04-17T03:10:12.488Z,14.43
2023-04-17T03:12:39.220Z,17.80
2023-04-17T03:15:08.756Z,12.83
2023-04-17T03:17:35.693Z,15.23
2023-04-17T03:20:02.476Z,13.03
2023-04-17T03:22:29.208Z,14.00
2023-04-17T03:24:57.180Z,12.80
2023-04-17T03:27:23.872Z,19.13
2023-04-17T03:29:50.689Z,14.17
2023-04-17T03:32:17.522Z,13.07
2023-04-17T03:34:44.652Z,10.20
2023-04-17T03:37:11.318Z,10.97
2023-04-17T03:39:38.121Z,14.23
2023-04-17T03:42:06.827Z,15.97
2023-04-17T03:44:33.540Z,18.03
2023-04-17T03:47:00.196Z,17.60
2023-04-17T03:49:26.862Z,13.20
2023-04-17T03:51:53.548Z,15.93
2023-04-17T03:54:20.198Z,15.70
2023-04-17T03:56:46.868Z,14.50
2023-04-17T03:59:14.921Z,14.07
2023-04-17T04:01:41.594Z,16.40
2023-04-17T04:04:08.500Z,14.37
2023-04-17T04:06:35.417Z,13.37
2023-04-17T04:09:02.076Z,16.47
2023-04-17T04:11:28.719Z,16.47
2023-04-17T04:13:55.360Z,14.83
2023-04-17T04:16:23.507Z,18.37
2023-04-17T04:18:50.271Z,16.93
2023-04-17T04:21:16.926Z,20.10
2023-04-17T04:23:43.630Z,16.90
2023-04-17T04:26:10.578Z,15.53
2023-04-17T04:28:37.424Z,16.00
2023-04-17T04:31:04.299Z,13.30
2023-04-17T04:33:32.329Z,20.00
2023-04-17T04:35:59.008Z,13.70
2023-04-17T04:38:25.622Z,14.33
2023-04-17T04:40:52.610Z,18.57
2023-04-17T04:43:22.163Z,14.00
2023-04-17T04:45:49.165Z,13.93
2023-04-17T04:48:15.848Z,18.97
2023-04-17T04:50:44.240Z,16.80
2023-04-17T04:53:10.904Z,13.40
2023-04-17T04:55:37.656Z,17.13
2023-04-17T04:58:04.376Z,18.70
2023-04-17T05:00:31.785Z,13.60
2023-04-17T05:02:58.636Z,14.50
2023-04-17T05:05:25.681Z,14.83
2023-04-17T05:07:53.851Z,13.47
2023-04-17T05:10:20.959Z,12.93
2023-04-17T05:12:48.237Z,18.53
2023-04-17T05:15:14.918Z,14.90
2023-04-17T05:17:41.739Z,23.47
2023-04-17T05:20:09.525Z,19.40
2023-04-17T05:22:36.331Z,14.83
2023-04-17T05:25:07.165Z,14.67
2023-04-17T05:27:34.018Z,13.03
2023-04-17T05:30:00.701Z,14.80
2023-04-17T05:32:27.480Z,15.17
2023-04-17T05:34:54.286Z,20.70
2023-04-17T05:37:20.949Z,16.33
2023-04-17T05:39:47.587Z,15.50
2023-04-17T05:42:15.570Z,14.90
2023-04-17T05:44:42.230Z,19.53
2023-04-17T05:47:08.906Z,19.50
2023-04-17T05:49:35.570Z,18.20
2023-04-17T05:52:02.319Z,17.97
2023-04-17T05:54:28.972Z,18.97
2023-04-17T05:56:55.724Z,21.00
2023-04-17T05:59:23.769Z,17.97
2023-04-17T06:01:50.666Z,17.27
2023-04-17T06:04:18.182Z,12.67
2023-04-17T06:06:45.491Z,18.07
2023-04-17T06:09:12.505Z,20.93
2023-04-17T06:11:39.420Z,15.57
2023-04-17T06:14:06.154Z,19.83
2023-04-17T06:16:34.319Z,16.50
2023-04-17T06:19:01.104Z,17.83
2023-04-17T06:21:27.868Z,19.47
2023-04-17T06:23:54.614Z,18.40
2023-04-17T06:26:21.443Z,17.17
2023-04-17T06:28:48.132Z,17.13
2023-04-17T06:31:14.952Z,18.50
2023-04-17T06:33:42.938Z,15.77
2023-04-17T06:36:09.787Z,20.83
2023-04-17T06:38:36.642Z,22.37
2023-04-17T06:41:03.441Z,19.17
2023-04-17T06:43:30.121Z,17.10
2023-04-17T06:45:56.849Z,17.80
2023-04-17T06:48:26.416Z,20.40
2023-04-17T06:50:54.396Z,21.10
2023-04-17T06:53:21.109Z,19.20
2023-04-17T06:55:47.769Z,23.47
2023-04-17T06:58:14.644Z,13.80
2023-04-17T07:00:41.321Z,22.73
2023-04-17T07:03:08.314Z,17.43
2023-04-17T07:05:35.130Z,20.77
2023-04-17T07:08:03.242Z,21.47
2023-04-17T07:10:29.966Z,19.20
2023-04-17T07:12:57.069Z,19.63
2023-04-17T07:15:23.910Z,20.10
2023-04-17T07:17:50.705Z,13.93
2023-04-17T07:20:17.394Z,17.17
2023-04-17T07:22:44.134Z,17.03
2023-04-17T07:25:12.140Z,14.23
2023-04-17T07:27:38.844Z,15.73
2023-04-17T07:30:07.515Z,15.73
2023-04-17T07:32:34.317Z,17.00
2023-04-17T07:35:01.066Z,20.53
2023-04-17T07:37:27.753Z,17.80
2023-04-17T07:39:54.446Z,16.47
2023-04-17T07:42:22.411Z,14.77
2023-04-17T07:44:49.218Z,14.00
2023-04-17T07:47:15.991Z,18.43
2023-04-17T07:49:42.804Z,16.47
2023-04-17T07:52:09.506Z,10.37
2023-04-17T07:54:36.280Z,16.00
2023-04-17T07:57:03.058Z,14.37
2023-04-17T07:59:31.198Z,13.07
2023-04-17T08:01:58.210Z,18.00
2023-04-17T08:04:25.870Z,14.07
2023-04-17T08:06:52.926Z,50.80
2023-04-17T08:09:20.531Z,14.50
2023-04-17T08:11:56.335Z,13.80
2023-04-17T08:14:24.609Z,15.23
2023-04-17T08:16:52.832Z,18.90
2023-04-17T08:19:19.571Z,12.70
2023-04-17T08:21:48.015Z,11.90
2023-04-17T08:24:15.862Z,13.50
2023-04-17T08:26:43.631Z,15.27
2023-04-17T08:29:10.421Z,14.70
2023-04-17T08:31:37.262Z,13.67
2023-04-17T08:34:13.828Z,15.70
2023-04-17T08:36:41.374Z,27.03
2023-04-17T08:39:08.101Z,16.33
2023-04-17T08:41:42.729Z,13.43
2023-04-17T08:44:09.474Z,18.63
2023-04-17T08:46:36.886Z,15.53
2023-04-17T08:49:05.015Z,17.30
2023-04-17T08:51:31.748Z,15.97
2023-04-17T08:53:58.420Z,12.50
2023-04-17T08:56:25.156Z,16.67
2023-04-17T08:58:51.830Z,21.00
2023-04-17T09:01:18.544Z,13.73
2023-04-17T09:03:47.899Z,19.27
2023-04-17T09:06:16.160Z,13.23
2023-04-17T09:08:57.336Z,12.23
2023-04-17T09:11:24.396Z,14.50
2023-04-17T09:13:51.226Z,12.47
2023-04-17T09:16:18.129Z,15.10
2023-04-17T09:18:44.834Z,16.90
2023-04-17T09:21:12.029Z,11.30
2023-04-17T09:23:51.708Z,13.23
2023-04-17T09:26:20.104Z,13.43
2023-04-17T09:29:04.596Z,11.93
2023-04-17T09:31:32.427Z,10.43
2023-04-17T09:34:00.711Z,10.60
2023-04-17T09:36:32.095Z,11.63
2023-04-17T09:39:02.755Z,11.77
2023-04-17T09:41:30.931Z,12.83
2023-04-17T09:43:58.875Z,17.00
2023-04-17T09:46:35.846Z,12.67
2023-04-17T09:49:10.108Z,14.30
2023-04-17T09:51:37.042Z,18.97
2023-04-17T09:54:06.116Z,13.13
2023-04-17T09:56:33.792Z,17.57
2023-04-17T09:59:03.887Z,16.37
2023-04-17T10:01:31.051Z,14.13
2023-04-17T10:03:58.340Z,14.00
2023-04-17T10:06:28.291Z,14.03
2023-04-17T10:08:55.159Z,11.87
2023-04-17T10:11:25.352Z,10.93
2023-04-17T10:14:05.030Z,18.40
2023-04-17T10:16:36.134Z,12.60
2023-04-17T10:19:24.752Z,16.10
2023-04-17T10:22:21.276Z,14.20
2023-04-17T10:24:49.442Z,21.33
2023-04-17T10:27:44.530Z,14.03
2023-04-17T10:30:12.385Z,10.83
2023-04-17T10:32:42.042Z,15.80
2023-04-17T10:35:36.081Z,13.30
2023-04-17T10:38:05.037Z,12.53
2023-04-17T10:40:33.561Z,10.27
2023-04-17T10:43:10.497Z,11.93
2023-04-17T10:46:09.288Z,13.83
2023-04-17T10:48:38.055Z,12.37
2023-04-17T10:51:40.248Z,8.10
2023-04-17T10:54:06.970Z,5.37
2023-04-17T10:56:37.338Z,9.60
2023-04-17T10:59:07.394Z,11.63
2023-04-17T11:01:38.660Z,11.83
2023-04-17T11:04:06.362Z,12.70
2023-04-17T11:06:36.949Z,12.70
2023-04-17T11:09:07.115Z,14.43
2023-04-17T11:14:09.190Z,11.80
2023-04-17T11:16:37.461Z,17.10
2023-04-17T11:19:05.202Z,15.40
2023-04-17T11:21:32.108Z,13.63
2023-04-17T11:24:02.337Z,15.73
2023-04-17T11:26:28.990Z,12.90
2023-04-17T11:28:55.658Z,14.23
2023-04-17T11:31:25.689Z,12.37
2023-04-17T11:33:52.452Z,12.67
2023-04-17T11:36:19.153Z,16.17
2023-04-17T11:38:49.142Z,14.43
2023-04-17T11:41:15.859Z,20.93
2023-04-17T11:43:42.529Z,12.90
2023-04-17T11:46:09.424Z,12.27
2023-04-17T11:48:37.607Z,14.53
2023-04-17T11:51:05.768Z,11.60
2023-04-17T11:53:34.909Z,16.53
2023-04-17T11:56:11.317Z,10.97
2023-04-17T11:58:45.680Z,12.23
2023-04-17T12:01:12.486Z,12.87
2023-04-17T12:03:41.858Z,10.87
2023-04-17T12:06:10.582Z,11.27
2023-04-17T12:08:45.492Z,10.13
2023-04-17T12:11:17.960Z,11.60
2023-04-17T12:13:46.728Z,9.90
2023-04-17T12:16:13.487Z,10.10
2023-04-17T12:18:41.534Z,10.67
2023-04-17T12:21:08.387Z,11.40
2023-04-17T12:23:35.156Z,11.73
2023-04-17T12:26:01.994Z,9.13
2023-04-17T12:28:29.449Z,11.73
2023-04-17T12:30:56.141Z,11.43
2023-04-17T12:33:22.840Z,9.83
2023-04-17T12:35:50.967Z,11.17
2023-04-17T12:38:17.883Z,9.97
2023-04-17T12:40:47.264Z,14.20
2023-04-17T12:43:14.001Z,10.37
2023-04-17T12:45:42.317Z,9.73
2023-04-17T12:48:09.662Z,10.60
2023-04-17T12:50:36.332Z,11.87
2023-04-17T12:53:04.354Z,11.83
2023-04-17T12:55:31.007Z,10.43
2023-04-17T12:57:59.766Z,12.63
2023-04-17T13:00:26.602Z,17.23
2023-04-17T13:02:53.509Z,14.13
2023-04-17T13:05:20.374Z,12.53
2023-04-17T13:07:47.020Z,12.20
2023-04-17T13:10:15.206Z,11.37
2023-04-17T13:12:41.944Z,14.00
2023-04-17T13:15:09.863Z,16.53
2023-04-17T13:17:36.636Z,11.90
2023-04-17T13:20:03.526Z,13.67
2023-04-17T13:22:30.340Z,14.43
2023-04-17T13:24:57.083Z,12.97
2023-04-17T13:27:25.110Z,13.83
2023-04-17T13:29:52.029Z,20.70
2023-04-17T13:32:18.820Z,12.00
2023-04-17T13:34:45.509Z,10.77
2023-04-17T13:37:12.426Z,12.27
2023-04-17T13:39:39.126Z,15.43
2023-04-17T13:42:06.003Z,17.93
2023-04-17T13:44:34.228Z,9.80
2023-04-17T13:47:00.925Z,11.00
2023-04-17T13:49:27.586Z,12.47
2023-04-17T13:51:54.298Z,15.70
2023-04-17T13:54:20.985Z,7.70
2023-04-17T13:56:47.688Z,14.37
2023-04-17T13:59:14.557Z,14.33
2023-04-17T14:01:42.940Z,11.60
2023-04-17T14:04:09.947Z,13.17
2023-04-17T14:06:36.892Z,14.37
2023-04-17T14:09:03.626Z,11.43
2023-04-17T14:11:30.335Z,12.57
2023-04-17T14:13:56.985Z,12.50
2023-04-17T14:16:23.801Z,13.30
2023-04-17T14:18:52.236Z,13.40
2023-04-17T14:21:19.224Z,6.93
2023-04-17T14:23:46.081Z,10.90
2023-04-17T14:26:12.905Z,10.67
2023-04-17T14:28:39.623Z,8.43
2023-04-17T14:31:06.531Z,12.00
2023-04-17T14:33:33.485Z,9.70
2023-04-17T14:36:01.846Z,17.40
2023-04-17T14:38:29.366Z,8.53
2023-04-17T14:40:56.059Z,10.03
2023-04-17T14:43:22.687Z,11.60
2023-04-17T14:45:49.436Z,6.00
2023-04-17T14:48:16.118Z,7.93
2023-04-17T14:50:42.853Z,15.57
2023-04-17T14:53:10.873Z,11.07
2023-04-17T14:55:37.602Z,11.03
2023-04-17T14:58:04.366Z,10.97
2023-04-17T15:00:31.074Z,9.73
2023-04-17T15:02:57.980Z,10.27
2023-04-17T15:05:24.897Z,12.53
2023-04-17T15:07:51.642Z,11.87
2023-04-17T15:10:19.722Z,12.90
2023-04-17T15:12:46.503Z,14.37
2023-04-17T15:15:13.212Z,10.60
2023-04-17T15:17:39.954Z,10.43
2023-04-17T15:20:07.574Z,12.07
2023-04-17T15:22:34.377Z,9.30
2023-04-17T15:25:01.031Z,11.63
2023-04-17T15:27:29.116Z,11.77
2023-04-17T15:29:55.824Z,14.60
2023-04-17T15:32:22.596Z,13.90
2023-04-17T15:34:49.393Z,10.23
2023-04-17T15:37:16.092Z,10.30
2023-04-17T15:39:42.756Z,7.67
2023-04-17T15:42:09.443Z,9.50
2023-04-17T15:44:37.726Z,11.33
2023-04-17T15:47:04.592Z,10.73
2023-04-17T15:49:31.262Z,8.37
2023-04-17T15:51:57.968Z,13.20
2023-04-17T15:54:24.648Z,12.40
2023-04-17T15:56:51.606Z,14.70
2023-04-17T15:59:18.294Z,12.50
2023-04-17T16:01:46.376Z,11.20
2023-04-17T16:04:13.151Z,8.60
2023-04-17T16:06:39.935Z,11.63
2023-04-17T16:09:06.605Z,10.13
2023-04-17T16:11:33.270Z,10.50
2023-04-17T16:14:00.004Z,10.33
2023-04-17T16:16:26.863Z,12.13
2023-04-17T16:18:54.970Z,10.63
2023-04-17T16:21:21.712Z,10.60
2023-04-17T16:23:48.392Z,10.57
2023-04-17T16:26:15.106Z,12.27
2023-04-17T16:28:41.905Z,7.13
2023-04-17T16:31:08.710Z,7.93
2023-04-17T16:33:35.442Z,8.07
2023-04-17T16:36:03.699Z,9.23
2023-04-17T16:38:30.400Z,7.80
2023-04-17T16:40:57.075Z,9.40
2023-04-17T16:43:23.725Z,7.40
2023-04-17T16:45:50.408Z,7.30
2023-04-17T16:48:17.244Z,3.83
2023-04-17T16:50:44.058Z,9.87
2023-04-17T16:53:12.063Z,4.73
2023-04-17T16:55:38.844Z,7.90
2023-04-17T16:58:05.596Z,8.37
2023-04-17T17:00:32.383Z,8.70
2023-04-17T17:02:59.301Z,9.40
2023-04-17T17:05:26.186Z,8.60
2023-04-17T17:07:52.844Z,6.90
2023-04-17T17:10:20.937Z,6.47
2023-04-17T17:12:47.701Z,6.50
2023-04-17T17:15:14.379Z,7.30
2023-04-17T17:17:41.142Z,6.43
2023-04-17T17:20:09.051Z,5.70
2023-04-17T17:22:35.727Z,6.20
2023-04-17T17:25:02.480Z,3.43
2023-04-17T17:27:30.442Z,5.87
2023-04-17T17:30:00.220Z,5.97
2023-04-17T17:32:27.285Z,4.20
2023-04-17T17:34:54.045Z,5.67
2023-04-17T17:37:20.715Z,6.43
2023-04-17T17:39:47.400Z,5.63
2023-04-17T17:42:14.051Z,7.10
2023-04-17T17:44:42.058Z,6.83
2023-04-17T17:47:08.802Z,6.37
2023-04-17T17:49:35.507Z,6.70
2023-04-17T17:52:02.417Z,9.40
2023-04-17T17:54:29.169Z,3.20
2023-04-17T17:56:55.865Z,12.60
2023-04-17T17:59:22.910Z,6.40
2023-04-17T18:01:51.070Z,6.70
2023-04-17T18:04:18.282Z,5.90
2023-04-17T18:06:45.217Z,7.37
2023-04-17T18:09:11.883Z,7.50
2023-04-17T18:11:38.753Z,5.30
2023-04-17T18:14:05.436Z,8.67
2023-04-17T18:16:32.285Z,4.80
2023-04-17T18:19:00.525Z,5.70
2023-04-17T18:21:27.311Z,7.50
2023-04-17T18:23:54.060Z,7.90
2023-04-17T18:26:20.741Z,6.30
2023-04-17T18:28:47.433Z,6.33
2023-04-17T18:31:14.490Z,5.43
2023-04-17T18:33:41.332Z,7.67
2023-04-17T18:36:09.486Z,5.53
2023-04-17T18:38:36.120Z,5.13
2023-04-17T18:41:02.842Z,4.73
2023-04-17T18:43:29.662Z,4.70
2023-04-17T18:45:56.384Z,4.97
2023-04-17T18:48:24.147Z,6.97
2023-04-17T18:50:50.819Z,5.50
2023-04-17T18:53:18.923Z,5.87
2023-04-17T18:55:45.611Z,6.67
2023-04-17T18:58:12.292Z,6.47
2023-04-17T19:00:39.021Z,5.20
2023-04-17T19:03:05.764Z,5.77
2023-04-17T19:05:32.531Z,4.20
2023-04-17T19:07:59.365Z,6.67
2023-04-17T19:10:27.572Z,6.97
2023-04-17T19:12:54.243Z,4.27
2023-04-17T19:15:21.011Z,5.43
2023-04-17T19:17:47.864Z,4.03
2023-04-17T19:20:14.565Z,6.47
2023-04-17T19:22:41.254Z,4.43
2023-04-17T19:25:09.109Z,3.67
2023-04-17T19:27:37.100Z,6.77
2023-04-17T19:30:07.150Z,5.67
2023-04-17T19:32:34.013Z,7.90
2023-04-17T19:35:00.764Z,5.20
2023-04-17T19:37:27.427Z,5.73
2023-04-17T19:39:56.517Z,5.00
2023-04-17T19:42:23.587Z,5.30
2023-04-17T19:44:51.737Z,4.67
2023-04-17T19:47:18.386Z,6.07
2023-04-17T19:49:45.098Z,5.80
2023-04-17T19:52:12.126Z,6.80
2023-04-17T19:54:38.835Z,6.27
2023-04-17T19:57:05.535Z,8.10
2023-04-17T19:59:32.227Z,5.40
2023-04-17T20:02:00.282Z,6.27
2023-04-17T20:04:28.023Z,7.37
2023-04-17T20:06:54.807Z,6.80
2023-04-17T20:09:21.498Z,5.13
2023-04-17T20:11:48.172Z,7.80
2023-04-17T20:14:14.874Z,6.80
2023-04-17T20:16:41.666Z,5.60
2023-04-17T20:19:09.692Z,4.50
2023-04-17T20:21:36.360Z,7.10
2023-04-17T20:24:03.256Z,5.10
2023-04-17T20:26:30.016Z,6.70
2023-04-17T20:28:56.754Z,4.50
2023-04-17T20:31:23.509Z,4.20
2023-04-17T20:33:50.226Z,5.17
2023-04-17T20:36:18.201Z,4.43
2023-04-17T20:38:45.300Z,6.00
2023-04-17T20:41:11.970Z,7.67
2023-04-17T20:43:38.643Z,4.20
2023-04-17T20:46:05.538Z,8.60
2023-04-17T20:48:32.530Z,7.50
2023-04-17T20:51:01.772Z,7.20
2023-04-17T20:53:29.765Z,5.70
2023-04-17T20:55:58.004Z,7.23
2023-04-17T20:58:24.857Z,7.03
2023-04-17T21:01:00.522Z,6.70
2023-04-17T21:03:29.025Z,7.57
2023-04-17T21:05:55.914Z,6.60
2023-04-17T21:08:22.583Z,6.67
2023-04-17T21:10:50.614Z,9.00
2023-04-17T21:13:17.305Z,8.23
2023-04-17T21:15:44.109Z,6.77
2023-04-17T21:18:10.997Z,6.10
2023-04-17T21:20:38.927Z,9.00
2023-04-17T21:23:05.579Z,10.63
2023-04-17T21:25:32.248Z,7.93
2023-04-17T21:28:00.268Z,10.20
2023-04-17T21:30:27.451Z,6.97
2023-04-17T21:32:54.397Z,7.63
2023-04-17T21:35:21.211Z,8.40
2023-04-17T21:37:47.868Z,8.47
2023-04-17T21:40:14.717Z,10.43
2023-04-17T21:42:41.374Z,8.73
2023-04-17T21:45:10.926Z,9.13
2023-04-17T21:47:37.767Z,9.97
2023-04-17T21:50:51.894Z,13.20
2023-04-17T21:53:18.536Z,9.00
2023-04-17T21:55:45.195Z,10.80
2023-04-17T21:58:12.360Z,11.90
2023-04-17T22:00:39.133Z,9.50
2023-04-17T22:03:05.856Z,12.23
2023-04-17T22:05:32.514Z,9.47
2023-04-17T22:08:00.538Z,7.50
2023-04-17T22:10:28.831Z,7.93
2023-04-17T22:12:55.577Z,9.27
2023-04-17T22:15:22.292Z,10.87
2023-04-17T22:17:49.192Z,9.20
2023-04-17T22:20:15.916Z,11.83
2023-04-17T22:22:42.573Z,12.43
2023-04-17T22:25:10.659Z,8.97
2023-04-17T22:27:37.323Z,11.60
2023-04-17T22:30:05.950Z,7.43
2023-04-17T22:32:33.838Z,12.30
2023-04-17T22:35:00.617Z,10.40
2023-04-17T22:37:27.260Z,11.70
2023-04-17T22:39:53.929Z,11.53
2023-04-17T22:42:22.141Z,11.20
2023-04-17T22:44:48.878Z,9.83
2023-04-17T22:47:15.568Z,13.17
2023-04-17T22:49:42.228Z,7.80
2023-04-17T22:52:09.069Z,9.53
2023-04-17T22:54:36.058Z,9.77
2023-04-17T22:57:02.836Z,10.70
2023-04-17T22:59:30.846Z,13.53
2023-04-17T23:01:57.663Z,10.23
2023-04-17T23:04:24.410Z,17.23
2023-04-17T23:06:51.096Z,9.90
2023-04-17T23:09:17.847Z,11.63
2023-04-17T23:11:44.512Z,10.37
2023-04-17T23:14:11.422Z,10.67
2023-04-17T23:16:39.669Z,11.30
2023-04-17T23:19:06.352Z,9.40
2023-04-17T23:21:33.060Z,10.50
2023-04-17T23:23:59.724Z,9.27
2023-04-17T23:26:26.361Z,12.47
2023-04-17T23:28:53.040Z,12.17
2023-04-17T23:31:19.862Z,9.53
2023-04-17T23:33:47.924Z,9.70
2023-04-17T23:36:14.752Z,9.77
2023-04-17T23:38:41.559Z,11.17
2023-04-17T23:41:08.210Z,12.57
2023-04-17T23:43:34.860Z,14.57
2023-04-17T23:46:01.612Z,11.40
2023-04-17T23:48:28.300Z,13.13
2023-04-17T23:50:56.361Z,14.33
2023-04-17T23:53:23.066Z,12.93
2023-04-17T23:55:49.699Z,13.67
2023-04-17T23:58:16.401Z,14.47
